createdAt,value
2023-05-12T00:00:16.651Z,0.00
2023-05-12T00:01:16.604Z,0.00
2023-05-12T00:02:16.612Z,0.00
2023-05-12T00:03:16.657Z,0.00
2023-05-12T00:04:16.585Z,0.00
2023-05-12T00:05:16.629Z,0.00
2023-05-12T00:06:16.566Z,0.00
2023-05-12T00:07:16.554Z,0.00
2023-05-12T00:08:16.556Z,0.00
2023-05-12T00:09:16.542Z,0.00
2023-05-12T00:10:16.608Z,0.00
2023-05-12T00:11:16.532Z,0.00
2023-05-12T00:12:16.525Z,0.00
2023-05-12T00:13:16.691Z,0.00
2023-05-12T00:14:16.521Z,0.00
2023-05-12T00:15:16.512Z,0.00
2023-05-12T00:16:16.552Z,0.00
2023-05-12T00:17:16.500Z,0.00
2023-05-12T00:18:16.666Z,0.00
2023-05-12T00:19:16.489Z,0.00
2023-05-12T00:20:16.489Z,0.00
2023-05-12T00:21:16.545Z,0.00
2023-05-12T00:22:16.476Z,0.00
2023-05-12T00:23:16.588Z,0.00
2023-05-12T00:24:16.465Z,0.00
2023-05-12T00:25:16.457Z,0.00
2023-05-12T00:26:16.454Z,0.00
2023-05-12T00:27:16.441Z,0.00
2023-05-12T00:28:16.579Z,0.00
2023-05-12T00:29:16.437Z,0.00
2023-05-12T00:30:16.458Z,0.00
2023-05-12T00:31:16.470Z,0.00
2023-05-12T00:32:16.421Z,0.00
2023-05-12T00:33:16.470Z,0.00
2023-05-12T00:34:16.413Z,0.00
2023-05-12T00:35:16.409Z,0.00
2023-05-12T00:36:16.400Z,0.00
2023-05-12T00:37:16.397Z,0.00
2023-05-12T00:38:16.434Z,0.00
2023-05-12T00:39:16.385Z,0.00
2023-05-12T00:40:16.429Z,0.00
2023-05-12T00:41:16.373Z,0.00
2023-05-12T00:42:16.371Z,0.00
2023-05-12T00:43:16.369Z,0.00
2023-05-12T00:44:16.356Z,0.00
2023-05-12T00:45:16.351Z,0.00
2023-05-12T00:46:16.381Z,0.00
2023-05-12T00:47:16.352Z,0.00
2023-05-12T00:48:16.335Z,0.00
2023-05-12T00:49:16.455Z,0.00
2023-05-12T00:50:16.431Z,0.00
2023-05-12T00:51:16.322Z,0.00
2023-05-12T00:52:16.335Z,0.00
2023-05-12T00:53:16.303Z,0.00
2023-05-12T00:54:16.345Z,0.00
2023-05-12T00:55:16.317Z,0.00
2023-05-12T00:56:16.288Z,0.00
2023-05-12T00:57:16.344Z,0.00
2023-05-12T00:58:16.278Z,0.00
2023-05-12T00:59:16.270Z,0.00
2023-05-12T01:00:16.726Z,0.00
2023-05-12T01:01:16.325Z,0.00
2023-05-12T01:02:16.347Z,0.00
2023-05-12T01:03:16.327Z,0.00
2023-05-12T01:04:16.245Z,0.00
2023-05-12T01:05:16.241Z,0.00
2023-05-12T01:06:16.229Z,0.00
2023-05-12T01:07:16.225Z,0.00
2023-05-12T01:08:16.220Z,0.00
2023-05-12T01:09:16.221Z,0.00
2023-05-12T01:10:16.207Z,0.00
2023-05-12T01:11:16.206Z,0.00
2023-05-12T01:12:16.202Z,0.00
2023-05-12T01:13:16.188Z,0.00
2023-05-12T01:14:16.193Z,0.00
2023-05-12T01:15:16.177Z,0.00
2023-05-12T01:16:16.173Z,0.00
2023-05-12T01:17:16.190Z,0.00
2023-05-12T01:18:16.190Z,0.00
2023-05-12T01:19:16.313Z,0.00
2023-05-12T01:20:16.149Z,0.00
2023-05-12T01:21:16.172Z,0.00
2023-05-12T01:22:16.136Z,0.00
2023-05-12T01:23:16.129Z,0.00
2023-05-12T01:24:16.123Z,0.00
2023-05-12T01:25:16.122Z,0.00
2023-05-12T01:26:16.114Z,0.00
2023-05-12T01:27:16.108Z,0.00
2023-05-12T01:28:16.101Z,0.00
2023-05-12T01:29:16.094Z,0.00
2023-05-12T01:30:16.085Z,0.00
2023-05-12T01:31:16.551Z,0.00
2023-05-12T01:32:16.109Z,0.00
2023-05-12T01:33:16.070Z,0.00
2023-05-12T01:34:16.111Z,0.00
2023-05-12T01:35:16.056Z,0.00
2023-05-12T01:36:16.051Z,0.00
2023-05-12T01:37:16.070Z,0.00
2023-05-12T01:38:16.040Z,0.00
2023-05-12T01:39:16.029Z,0.00
2023-05-12T01:40:16.022Z,0.00
2023-05-12T01:41:16.056Z,0.00
2023-05-12T01:42:16.027Z,0.00
2023-05-12T01:43:16.006Z,0.00
2023-05-12T01:44:15.999Z,0.00
2023-05-12T01:45:16.009Z,0.00
2023-05-12T01:46:16.004Z,0.00
2023-05-12T01:47:16.113Z,0.00
2023-05-12T01:48:15.974Z,0.00
2023-05-12T01:49:15.968Z,0.00
2023-05-12T01:50:15.966Z,0.00
2023-05-12T01:51:16.058Z,0.00
2023-05-12T01:52:15.948Z,0.00
2023-05-12T01:53:15.943Z,0.00
2023-05-12T01:54:15.934Z,0.00
2023-05-12T01:55:15.950Z,0.00
2023-05-12T01:56:15.937Z,0.00
2023-05-12T01:57:15.914Z,0.00
2023-05-12T01:58:15.915Z,0.00
2023-05-12T01:59:15.940Z,0.00
2023-05-12T02:00:15.912Z,0.00
2023-05-12T02:01:15.931Z,0.00
2023-05-12T02:02:16.028Z,0.00
2023-05-12T02:03:15.948Z,0.00
2023-05-12T02:04:16.066Z,0.00
2023-05-12T02:05:15.861Z,0.00
2023-05-12T02:06:15.875Z,0.00
2023-05-12T02:07:15.849Z,0.00
2023-05-12T02:08:15.841Z,0.00
2023-05-12T02:09:15.837Z,0.00
2023-05-12T02:10:15.844Z,0.00
2023-05-12T02:11:15.880Z,0.00
2023-05-12T02:12:15.818Z,0.00
2023-05-12T02:13:15.818Z,0.00
2023-05-12T02:14:15.813Z,0.00
2023-05-12T02:15:15.831Z,0.00
2023-05-12T02:16:15.884Z,0.00
2023-05-12T02:17:15.787Z,0.00
2023-05-12T02:18:15.775Z,0.00
2023-05-12T02:19:15.777Z,0.00
2023-05-12T02:20:15.772Z,0.00
2023-05-12T02:21:15.753Z,0.00
2023-05-12T02:22:15.760Z,0.00
2023-05-12T02:23:15.754Z,0.00
2023-05-12T02:24:15.741Z,0.00
2023-05-12T02:25:15.731Z,0.00
2023-05-12T02:26:15.728Z,0.00
2023-05-12T02:27:15.768Z,0.00
2023-05-12T02:28:15.718Z,0.00
2023-05-12T02:29:15.713Z,0.00
2023-05-12T02:30:15.720Z,0.00
2023-05-12T02:31:15.688Z,0.00
2023-05-12T02:32:15.765Z,0.00
2023-05-12T02:33:15.684Z,0.00
2023-05-12T02:34:15.670Z,0.00
2023-05-12T02:35:15.691Z,0.00
2023-05-12T02:36:15.663Z,0.00
2023-05-12T02:37:15.658Z,0.00
2023-05-12T02:38:15.645Z,0.00
2023-05-12T02:39:15.639Z,0.00
2023-05-12T02:40:15.633Z,0.00
2023-05-12T02:41:15.628Z,0.00
2023-05-12T02:42:15.647Z,0.00
2023-05-12T02:43:15.615Z,0.00
2023-05-12T02:44:15.598Z,0.00
2023-05-12T02:45:15.608Z,0.00
2023-05-12T02:46:15.646Z,0.00
2023-05-12T02:47:15.586Z,0.00
2023-05-12T02:48:15.585Z,0.00
2023-05-12T02:49:15.574Z,0.00
2023-05-12T02:50:15.566Z,0.00
2023-05-12T02:51:15.563Z,0.00
2023-05-12T02:52:15.584Z,0.00
2023-05-12T02:53:15.563Z,0.00
2023-05-12T02:54:15.538Z,0.00
2023-05-12T02:55:15.568Z,0.00
2023-05-12T02:56:15.532Z,0.00
2023-05-12T02:57:15.519Z,0.00
2023-05-12T02:58:15.514Z,0.00
2023-05-12T02:59:15.550Z,0.00
2023-05-12T03:00:15.503Z,0.00
2023-05-12T03:01:15.561Z,0.00
2023-05-12T03:02:15.511Z,0.00
2023-05-12T03:03:15.541Z,0.00
2023-05-12T03:04:15.476Z,0.00
2023-05-12T03:05:15.466Z,0.00
2023-05-12T03:06:15.474Z,0.00
2023-05-12T03:07:15.474Z,0.00
2023-05-12T03:08:15.468Z,0.00
2023-05-12T03:09:15.440Z,0.00
2023-05-12T03:10:15.432Z,0.00
2023-05-12T03:11:15.452Z,5.63
2023-05-12T03:12:15.433Z,5.63
2023-05-12T03:13:15.431Z,5.63
2023-05-12T03:14:15.445Z,5.63
2023-05-12T03:15:15.453Z,5.63
2023-05-12T03:16:15.631Z,5.63
2023-05-12T03:17:15.497Z,5.63
2023-05-12T03:18:15.377Z,5.63
2023-05-12T03:19:15.369Z,5.63
2023-05-12T03:20:15.427Z,5.63
2023-05-12T03:21:15.355Z,11.25
2023-05-12T03:22:15.346Z,11.25
2023-05-12T03:23:15.344Z,11.25
2023-05-12T03:24:15.344Z,11.25
2023-05-12T03:25:15.325Z,11.25
2023-05-12T03:26:15.318Z,11.25
2023-05-12T03:27:15.312Z,16.88
2023-05-12T03:28:15.306Z,16.88
2023-05-12T03:29:15.302Z,16.88
2023-05-12T03:30:15.289Z,16.88
2023-05-12T03:31:15.309Z,16.88
2023-05-12T03:32:15.287Z,22.50
2023-05-12T03:33:15.277Z,22.50
2023-05-12T03:34:15.264Z,22.50
2023-05-12T03:35:15.257Z,22.50
2023-05-12T03:36:15.248Z,28.13
2023-05-12T03:37:15.241Z,28.13
2023-05-12T03:38:15.237Z,33.75
2023-05-12T03:39:15.225Z,33.75
2023-05-12T03:40:15.230Z,33.75
2023-05-12T03:41:15.213Z,33.75
2023-05-12T03:42:15.228Z,33.75
2023-05-12T03:43:15.199Z,33.75
2023-05-12T03:44:15.199Z,33.75
2023-05-12T03:45:15.195Z,39.38
2023-05-12T03:46:15.303Z,39.38
2023-05-12T03:47:15.266Z,45.00
2023-05-12T03:48:15.272Z,39.38
2023-05-12T03:49:15.236Z,45.00
2023-05-12T03:50:15.158Z,45.00
2023-05-12T03:51:15.144Z,45.00
2023-05-12T03:52:15.146Z,45.00
2023-05-12T03:53:15.132Z,45.00
2023-05-12T03:54:15.122Z,45.00
2023-05-12T03:55:15.121Z,50.63
2023-05-12T03:56:15.162Z,50.63
2023-05-12T03:57:15.108Z,50.63
2023-05-12T03:58:15.091Z,56.25
2023-05-12T03:59:15.090Z,56.25
2023-05-12T04:00:15.083Z,56.25
2023-05-12T04:01:15.075Z,56.25
2023-05-12T04:02:15.090Z,56.25
2023-05-12T04:03:15.123Z,61.88
2023-05-12T04:04:15.096Z,61.88
2023-05-12T04:05:15.049Z,61.88
2023-05-12T04:06:15.042Z,61.88
2023-05-12T04:07:15.091Z,61.88
2023-05-12T04:08:15.025Z,67.50
2023-05-12T04:09:15.045Z,67.50
2023-05-12T04:10:15.011Z,67.50
2023-05-12T04:11:15.001Z,67.50
2023-05-12T04:12:14.997Z,67.50
2023-05-12T04:13:14.993Z,73.13
2023-05-12T04:14:14.993Z,73.13
2023-05-12T04:15:14.995Z,73.13
2023-05-12T04:16:15.073Z,73.13
2023-05-12T04:17:14.965Z,78.75
2023-05-12T04:18:14.958Z,78.75
2023-05-12T04:19:14.962Z,78.75
2023-05-12T04:20:14.953Z,78.75
2023-05-12T04:21:14.934Z,84.38
2023-05-12T04:22:14.928Z,84.38
2023-05-12T04:23:14.931Z,90.00
2023-05-12T04:24:14.913Z,106.88
2023-05-12T04:25:14.909Z,112.50
2023-05-12T04:26:14.900Z,151.88
2023-05-12T04:27:14.892Z,123.75
2023-05-12T04:28:14.888Z,101.25
2023-05-12T04:29:14.884Z,95.63
2023-05-12T04:30:14.883Z,101.25
2023-05-12T04:31:14.872Z,118.13
2023-05-12T04:32:14.936Z,151.88
2023-05-12T04:33:14.856Z,163.13
2023-05-12T04:34:14.853Z,146.25
2023-05-12T04:35:14.839Z,129.38
2023-05-12T04:36:14.834Z,123.75
2023-05-12T04:37:14.830Z,123.75
2023-05-12T04:38:14.820Z,135.00
2023-05-12T04:39:14.815Z,140.63
2023-05-12T04:40:14.813Z,129.38
2023-05-12T04:41:14.802Z,118.13
2023-05-12T04:42:14.800Z,118.13
2023-05-12T04:44:14.780Z,118.13
2023-05-12T04:45:14.774Z,123.75
2023-05-12T04:46:14.794Z,123.75
2023-05-12T04:47:14.764Z,123.75
2023-05-12T04:48:14.751Z,129.38
2023-05-12T04:49:14.746Z,208.13
2023-05-12T04:50:14.741Z,253.13
2023-05-12T04:51:14.742Z,253.13
2023-05-12T04:52:14.726Z,236.25
2023-05-12T04:53:14.719Z,303.75
2023-05-12T04:54:14.710Z,303.75
2023-05-12T04:55:14.704Z,270.00
2023-05-12T04:56:14.707Z,315.00
2023-05-12T04:57:14.695Z,320.63
2023-05-12T04:58:14.694Z,343.13
2023-05-12T04:59:14.686Z,337.50
2023-05-12T05:00:14.680Z,348.75
2023-05-12T05:01:14.708Z,365.63
2023-05-12T05:02:14.718Z,376.88
2023-05-12T05:03:14.803Z,382.50
2023-05-12T05:04:14.653Z,376.88
2023-05-12T05:05:14.662Z,382.50
2023-05-12T05:06:14.642Z,315.00
2023-05-12T05:07:14.640Z,208.13
2023-05-12T05:08:14.626Z,208.13
2023-05-12T05:09:14.623Z,196.88
2023-05-12T05:10:14.642Z,247.50
2023-05-12T05:11:14.623Z,247.50
2023-05-12T05:12:14.609Z,196.88
2023-05-12T05:13:14.598Z,185.63
2023-05-12T05:14:14.593Z,196.88
2023-05-12T05:15:14.584Z,281.25
2023-05-12T05:16:14.737Z,354.38
2023-05-12T05:17:14.572Z,219.38
2023-05-12T05:18:14.630Z,202.50
2023-05-12T05:19:20.923Z,236.25
2023-05-12T05:20:15.323Z,230.63
2023-05-12T05:21:14.611Z,292.50
2023-05-12T05:22:14.545Z,253.13
2023-05-12T05:23:14.534Z,253.13
2023-05-12T05:24:14.541Z,258.75
2023-05-12T05:25:14.530Z,258.75
2023-05-12T05:26:14.528Z,376.88
2023-05-12T05:27:14.556Z,309.38
2023-05-12T05:28:14.517Z,258.75
2023-05-12T05:29:14.506Z,264.38
2023-05-12T05:30:14.503Z,444.38
2023-05-12T05:31:14.503Z,309.38
2023-05-12T05:32:14.584Z,309.38
2023-05-12T05:33:14.488Z,298.13
2023-05-12T05:34:14.529Z,331.88
2023-05-12T05:35:14.477Z,354.38
2023-05-12T05:36:14.472Z,354.38
2023-05-12T05:37:14.468Z,343.13
2023-05-12T05:38:14.458Z,331.88
2023-05-12T05:39:14.450Z,405.00
2023-05-12T05:40:14.471Z,326.25
2023-05-12T05:41:14.444Z,376.88
2023-05-12T05:42:14.485Z,731.25
2023-05-12T05:43:14.436Z,894.38
2023-05-12T05:44:14.422Z,365.63
2023-05-12T05:45:14.415Z,703.13
2023-05-12T05:46:14.433Z,1198.13
2023-05-12T05:47:14.468Z,1282.50
2023-05-12T05:48:14.401Z,1310.63
2023-05-12T05:49:14.398Z,990.00
2023-05-12T05:50:14.393Z,804.38
2023-05-12T05:51:14.389Z,1226.25
2023-05-12T05:52:14.418Z,1130.63
2023-05-12T05:53:14.398Z,1119.38
2023-05-12T05:54:14.380Z,855.00
2023-05-12T05:55:14.368Z,1237.50
2023-05-12T05:56:14.362Z,1344.38
2023-05-12T05:57:14.359Z,1423.13
2023-05-12T05:58:14.350Z,1389.38
2023-05-12T05:59:14.430Z,1316.25
2023-05-12T06:00:14.351Z,1372.50
2023-05-12T06:01:14.340Z,1406.25
2023-05-12T06:02:14.363Z,1440.00
2023-05-12T06:03:14.455Z,1389.38
2023-05-12T06:04:14.375Z,1305.00
2023-05-12T06:05:14.661Z,1299.38
2023-05-12T06:06:14.337Z,1321.88
2023-05-12T06:07:14.317Z,1366.88
2023-05-12T06:08:14.315Z,1485.00
2023-05-12T06:09:14.311Z,1524.38
2023-05-12T06:10:14.317Z,1546.88
2023-05-12T06:11:15.867Z,1563.75
2023-05-12T06:12:14.309Z,1546.88
2023-05-12T06:13:14.302Z,1496.25
2023-05-12T06:14:14.302Z,1580.63
2023-05-12T06:15:14.308Z,1541.25
2023-05-12T06:16:14.344Z,1591.88
2023-05-12T06:17:14.288Z,1636.88
2023-05-12T06:18:14.635Z,1580.63
2023-05-12T06:19:14.391Z,1563.75
2023-05-12T06:20:14.287Z,1546.88
2023-05-12T06:21:14.297Z,1597.50
2023-05-12T06:22:14.297Z,1603.13
2023-05-12T06:23:14.354Z,1732.50
2023-05-12T06:24:14.275Z,1867.50
2023-05-12T06:25:14.273Z,1811.25
2023-05-12T06:26:14.268Z,1710.00
2023-05-12T06:27:14.271Z,1665.00
2023-05-12T06:28:14.267Z,1670.63
2023-05-12T06:29:14.266Z,1665.00
2023-05-12T06:30:15.993Z,1687.50
2023-05-12T06:31:14.278Z,1715.63
2023-05-12T06:32:14.483Z,1800.00
2023-05-12T06:33:14.272Z,1890.00
2023-05-12T06:34:14.262Z,1929.38
2023-05-12T06:35:14.337Z,1940.63
2023-05-12T06:36:14.264Z,1935.00
2023-05-12T06:37:14.259Z,1940.63
2023-05-12T06:38:14.371Z,1912.50
2023-05-12T06:39:14.271Z,1901.25
2023-05-12T06:40:14.273Z,1884.38
2023-05-12T06:41:14.261Z,1901.25
2023-05-12T06:42:14.273Z,1985.63
2023-05-12T06:43:14.273Z,2041.88
2023-05-12T06:44:14.263Z,2064.38
2023-05-12T06:45:14.282Z,2109.38
2023-05-12T06:46:14.313Z,2193.75
2023-05-12T06:47:14.294Z,2233.13
2023-05-12T06:48:14.256Z,2221.88
2023-05-12T06:49:14.293Z,2221.88
2023-05-12T06:50:14.268Z,2238.75
2023-05-12T06:51:14.280Z,2233.13
2023-05-12T06:52:14.286Z,2216.25
2023-05-12T06:53:14.281Z,2244.38
2023-05-12T06:54:14.270Z,2295.00
2023-05-12T06:55:14.283Z,2306.25
2023-05-12T06:56:14.292Z,2300.63
2023-05-12T06:57:14.300Z,2340.00
2023-05-12T06:58:14.259Z,2362.50
2023-05-12T06:59:14.312Z,2362.50
2023-05-12T07:00:14.283Z,2317.50
2023-05-12T07:01:14.301Z,2250.00
2023-05-12T07:02:14.277Z,2210.63
2023-05-12T07:03:14.540Z,2188.13
2023-05-12T07:04:14.315Z,2154.38
2023-05-12T07:05:14.299Z,2109.38
2023-05-12T07:06:14.302Z,2115.00
2023-05-12T07:07:14.265Z,2160.00
2023-05-12T07:08:14.259Z,2250.00
2023-05-12T07:09:14.283Z,2328.75
2023-05-12T07:10:14.317Z,2418.75
2023-05-12T07:11:14.281Z,2475.00
2023-05-12T07:12:14.309Z,2452.50
2023-05-12T07:13:14.285Z,2418.75
2023-05-12T07:14:14.296Z,2385.00
2023-05-12T07:15:14.275Z,2362.50
2023-05-12T07:16:14.358Z,2396.25
2023-05-12T07:17:14.282Z,2430.00
2023-05-12T07:18:14.289Z,2480.63
2023-05-12T07:19:14.330Z,2531.25
2023-05-12T07:20:14.295Z,2520.00
2023-05-12T07:21:14.283Z,2486.25
2023-05-12T07:22:14.285Z,2475.00
2023-05-12T07:23:14.295Z,2520.00
2023-05-12T07:24:14.302Z,2604.38
2023-05-12T07:25:14.307Z,2671.88
2023-05-12T07:26:14.342Z,2683.13
2023-05-12T07:27:14.290Z,2683.13
2023-05-12T07:28:14.298Z,2694.38
2023-05-12T07:29:14.279Z,2711.25
2023-05-12T07:30:14.312Z,2694.38
2023-05-12T07:31:14.313Z,2711.25
2023-05-12T07:32:14.288Z,2711.25
2023-05-12T07:33:14.312Z,2700.00
2023-05-12T07:34:14.287Z,2666.25
2023-05-12T07:35:14.335Z,2683.13
2023-05-12T07:36:14.310Z,2688.75
2023-05-12T07:37:14.307Z,2716.88
2023-05-12T07:38:14.345Z,2767.50
2023-05-12T07:39:14.317Z,2801.25
2023-05-12T07:40:14.318Z,2733.75
2023-05-12T07:41:14.305Z,2626.88
2023-05-12T07:42:14.354Z,2542.50
2023-05-12T07:43:14.355Z,2536.88
2023-05-12T07:44:14.325Z,2593.13
2023-05-12T07:45:14.321Z,2655.00
2023-05-12T07:46:14.336Z,2801.25
2023-05-12T07:47:14.408Z,2947.50
2023-05-12T07:48:14.373Z,3031.88
2023-05-12T07:49:14.327Z,3015.00
2023-05-12T07:50:14.320Z,3003.75
2023-05-12T07:51:14.335Z,2964.38
2023-05-12T07:52:14.322Z,2936.25
2023-05-12T07:53:14.357Z,2863.13
2023-05-12T07:54:14.337Z,2818.13
2023-05-12T07:55:14.325Z,2784.38
2023-05-12T07:56:14.357Z,2756.25
2023-05-12T07:57:14.380Z,2745.00
2023-05-12T07:58:14.475Z,2767.50
2023-05-12T07:59:14.382Z,2896.88
2023-05-12T08:00:14.365Z,3031.88
2023-05-12T08:01:14.393Z,3138.75
2023-05-12T08:02:14.402Z,3116.25
2023-05-12T08:03:14.420Z,3037.50
2023-05-12T08:04:14.536Z,3065.63
2023-05-12T08:05:14.346Z,3088.13
2023-05-12T08:06:14.350Z,3133.13
2023-05-12T08:07:14.375Z,3133.13
2023-05-12T08:08:14.352Z,3127.50
2023-05-12T08:09:14.361Z,3172.50
2023-05-12T08:10:14.369Z,3206.25
2023-05-12T08:11:14.368Z,3178.13
2023-05-12T08:12:14.379Z,2497.50
2023-05-12T08:13:14.365Z,849.38
2023-05-12T08:14:14.393Z,320.63
2023-05-12T08:15:14.455Z,303.75
2023-05-12T08:16:14.380Z,286.88
2023-05-12T08:17:14.429Z,281.25
2023-05-12T08:18:14.460Z,270.00
2023-05-12T08:19:14.448Z,270.00
2023-05-12T08:20:14.379Z,264.38
2023-05-12T08:21:14.441Z,258.75
2023-05-12T08:22:14.386Z,258.75
2023-05-12T08:23:14.385Z,253.13
2023-05-12T08:24:14.396Z,253.13
2023-05-12T08:25:14.429Z,247.50
2023-05-12T08:26:14.386Z,247.50
2023-05-12T08:27:14.389Z,247.50
2023-05-12T08:28:14.393Z,247.50
2023-05-12T08:29:14.502Z,247.50
2023-05-12T08:30:14.537Z,241.88
2023-05-12T08:31:14.446Z,241.88
2023-05-12T08:32:14.389Z,241.88
2023-05-12T08:33:14.387Z,241.88
2023-05-12T08:34:14.403Z,241.88
2023-05-12T08:35:14.439Z,241.88
2023-05-12T08:36:14.385Z,236.25
2023-05-12T08:37:14.455Z,236.25
2023-05-12T08:38:14.389Z,236.25
2023-05-12T08:39:14.381Z,236.25
2023-05-12T08:40:14.382Z,236.25
2023-05-12T08:41:14.382Z,247.50
2023-05-12T08:42:14.382Z,433.13
2023-05-12T08:43:14.406Z,669.38
2023-05-12T08:44:14.392Z,1051.88
2023-05-12T08:45:14.376Z,973.13
2023-05-12T08:46:14.596Z,399.38
2023-05-12T08:47:14.396Z,281.25
2023-05-12T08:48:14.393Z,236.25
2023-05-12T08:49:14.375Z,247.50
2023-05-12T08:50:14.380Z,258.75
2023-05-12T08:51:14.371Z,258.75
2023-05-12T08:52:14.400Z,258.75
2023-05-12T08:53:14.368Z,258.75
2023-05-12T08:54:14.365Z,258.75
2023-05-12T08:55:14.378Z,253.13
2023-05-12T08:57:14.367Z,253.13
2023-05-12T08:58:14.399Z,253.13
2023-05-12T08:59:14.371Z,247.50
2023-05-12T09:00:14.374Z,236.25
2023-05-12T09:01:14.437Z,225.00
2023-05-12T09:02:14.557Z,219.38
2023-05-12T09:03:14.412Z,219.38
2023-05-12T09:04:14.428Z,213.75
2023-05-12T09:05:14.380Z,213.75
2023-05-12T09:06:14.383Z,213.75
2023-05-12T09:07:14.382Z,213.75
2023-05-12T09:08:14.389Z,219.38
2023-05-12T09:09:14.356Z,219.38
2023-05-12T09:10:26.025Z,219.38
2023-05-12T09:11:14.372Z,219.38
2023-05-12T09:12:15.178Z,213.75
2023-05-12T09:13:14.366Z,213.75
2023-05-12T09:14:14.351Z,213.75
2023-05-12T09:15:14.346Z,213.75
2023-05-12T09:16:14.373Z,213.75
2023-05-12T09:17:14.352Z,208.13
2023-05-12T09:18:14.363Z,208.13
2023-05-12T09:19:14.428Z,208.13
2023-05-12T09:20:27.712Z,208.13
2023-05-12T09:21:14.336Z,202.50
2023-05-12T09:22:14.337Z,202.50
2023-05-12T09:23:14.339Z,202.50
2023-05-12T09:24:14.342Z,202.50
2023-05-12T09:25:14.821Z,202.50
2023-05-12T09:26:14.342Z,202.50
2023-05-12T09:27:14.335Z,202.50
2023-05-12T09:28:14.353Z,202.50
2023-05-12T09:29:24.110Z,202.50
2023-05-12T09:30:14.339Z,196.88
2023-05-12T09:31:14.827Z,196.88
2023-05-12T09:32:14.320Z,191.25
2023-05-12T09:33:14.374Z,191.25
2023-05-12T09:34:14.329Z,185.63
2023-05-12T09:35:14.315Z,185.63
2023-05-12T09:36:14.311Z,185.63
2023-05-12T09:37:15.511Z,180.00
2023-05-12T09:38:14.323Z,180.00
2023-05-12T09:39:14.305Z,180.00
2023-05-12T09:40:14.303Z,180.00
2023-05-12T09:41:14.300Z,174.38
2023-05-12T09:42:14.310Z,174.38
2023-05-12T09:43:15.657Z,174.38
2023-05-12T09:44:14.297Z,174.38
2023-05-12T09:45:14.292Z,174.38
2023-05-12T09:46:14.301Z,180.00
2023-05-12T09:47:14.285Z,180.00
2023-05-12T09:48:14.409Z,185.63
2023-05-12T09:49:14.333Z,185.63
2023-05-12T09:50:14.411Z,191.25
2023-05-12T09:51:14.278Z,191.25
2023-05-12T09:52:14.279Z,196.88
2023-05-12T09:53:14.272Z,196.88
2023-05-12T09:54:14.277Z,196.88
2023-05-12T09:55:14.274Z,196.88
2023-05-12T09:56:14.268Z,202.50
2023-05-12T09:57:14.263Z,202.50
2023-05-12T09:58:14.259Z,202.50
2023-05-12T09:59:14.258Z,202.50
2023-05-12T10:00:30.338Z,202.50
2023-05-12T10:01:22.829Z,202.50
2023-05-12T10:02:14.295Z,196.88
2023-05-12T10:03:14.277Z,202.50
2023-05-12T10:04:14.269Z,202.50
2023-05-12T10:05:14.276Z,208.13
2023-05-12T10:06:14.312Z,208.13
2023-05-12T10:07:14.256Z,208.13
2023-05-12T10:08:14.242Z,208.13
2023-05-12T10:09:14.252Z,208.13
2023-05-12T10:10:14.236Z,208.13
2023-05-12T10:11:14.229Z,202.50
2023-05-12T10:12:14.230Z,202.50
2023-05-12T10:13:14.227Z,202.50
2023-05-12T10:14:14.232Z,202.50
2023-05-12T10:15:14.222Z,202.50
2023-05-12T10:16:14.219Z,202.50
2023-05-12T10:17:14.237Z,196.88
2023-05-12T10:18:14.264Z,196.88
2023-05-12T10:19:14.208Z,196.88
2023-05-12T10:20:14.207Z,191.25
2023-05-12T10:21:14.208Z,191.25
2023-05-12T10:22:14.217Z,191.25
2023-05-12T10:23:14.200Z,185.63
2023-05-12T10:24:14.203Z,185.63
2023-05-12T10:25:14.195Z,185.63
2023-05-12T10:26:14.200Z,185.63
2023-05-12T10:27:14.187Z,185.63
2023-05-12T10:28:14.193Z,185.63
2023-05-12T10:29:14.201Z,180.00
2023-05-12T10:30:14.185Z,180.00
2023-05-12T10:31:14.247Z,180.00
2023-05-12T10:32:14.179Z,180.00
2023-05-12T10:33:14.177Z,180.00
2023-05-12T10:34:14.173Z,180.00
2023-05-12T10:35:14.173Z,180.00
2023-05-12T10:36:14.172Z,180.00
2023-05-12T10:37:14.164Z,180.00
2023-05-12T10:38:14.237Z,180.00
2023-05-12T10:39:14.165Z,180.00
2023-05-12T10:40:14.160Z,180.00
2023-05-12T10:41:14.160Z,180.00
2023-05-12T10:42:14.152Z,180.00
2023-05-12T10:43:14.149Z,180.00
2023-05-12T10:44:14.161Z,180.00
2023-05-12T10:45:14.155Z,180.00
2023-05-12T10:46:14.162Z,180.00
2023-05-12T10:47:14.143Z,168.75
2023-05-12T10:48:14.218Z,174.38
2023-05-12T10:49:14.137Z,174.38
2023-05-12T10:50:14.137Z,174.38
2023-05-12T10:51:14.130Z,174.38
2023-05-12T10:52:14.140Z,174.38
2023-05-12T10:53:14.126Z,174.38
2023-05-12T10:54:14.140Z,174.38
2023-05-12T10:55:14.183Z,174.38
2023-05-12T10:56:14.308Z,174.38
2023-05-12T10:57:17.074Z,174.38
2023-05-12T10:58:14.423Z,174.38
2023-05-12T10:59:14.880Z,174.38
2023-05-12T11:00:14.731Z,174.38
2023-05-12T11:01:14.737Z,174.38
2023-05-12T11:02:14.691Z,168.75
2023-05-12T11:03:15.223Z,174.38
2023-05-12T11:04:14.202Z,174.38
2023-05-12T11:05:14.195Z,174.38
2023-05-12T11:06:14.354Z,174.38
2023-05-12T11:07:14.693Z,196.88
2023-05-12T11:08:14.384Z,303.75
2023-05-12T11:09:15.205Z,315.00
2023-05-12T11:10:15.184Z,213.75
2023-05-12T11:11:14.113Z,208.13
2023-05-12T11:12:14.080Z,202.50
2023-05-12T11:13:14.093Z,196.88
2023-05-12T11:14:14.279Z,196.88
2023-05-12T11:15:14.698Z,191.25
2023-05-12T11:16:14.093Z,191.25
2023-05-12T11:17:14.093Z,191.25
2023-05-12T11:18:14.128Z,185.63
2023-05-12T11:19:14.091Z,185.63
2023-05-12T11:20:14.132Z,185.63
2023-05-12T11:21:14.064Z,185.63
2023-05-12T11:22:14.060Z,191.25
2023-05-12T11:23:14.058Z,196.88
2023-05-12T11:24:14.062Z,196.88
2023-05-12T11:25:14.112Z,202.50
2023-05-12T11:26:14.052Z,202.50
2023-05-12T11:27:14.047Z,202.50
2023-05-12T11:28:14.048Z,202.50
2023-05-12T11:29:14.046Z,202.50
2023-05-12T11:30:14.103Z,202.50
2023-05-12T11:31:14.094Z,196.88
2023-05-12T11:32:14.042Z,191.25
2023-05-12T11:33:14.130Z,185.63
2023-05-12T11:34:14.049Z,180.00
2023-05-12T11:35:14.029Z,180.00
2023-05-12T11:36:14.031Z,180.00
2023-05-12T11:37:14.030Z,185.63
2023-05-12T11:38:14.027Z,191.25
2023-05-12T11:39:14.041Z,196.88
2023-05-12T11:40:14.028Z,196.88
2023-05-12T11:41:14.020Z,196.88
2023-05-12T11:42:15.161Z,202.50
2023-05-12T11:43:14.017Z,202.50
2023-05-12T11:44:14.014Z,202.50
2023-05-12T11:45:14.015Z,208.13
2023-05-12T11:46:14.040Z,208.13
2023-05-12T11:47:14.023Z,213.75
2023-05-12T11:48:14.155Z,213.75
2023-05-12T11:49:14.002Z,213.75
2023-05-12T11:50:14.014Z,208.13
2023-05-12T11:51:14.007Z,202.50
2023-05-12T11:52:14.004Z,191.25
2023-05-12T11:53:13.996Z,185.63
2023-05-12T11:54:13.992Z,185.63
2023-05-12T11:55:13.987Z,180.00
2023-05-12T11:56:13.992Z,180.00
2023-05-12T11:57:13.990Z,180.00
2023-05-12T11:58:14.012Z,180.00
2023-05-12T11:59:13.984Z,174.38
2023-05-12T12:00:13.988Z,174.38
2023-05-12T12:01:13.981Z,174.38
2023-05-12T12:02:14.020Z,174.38
2023-05-12T12:03:14.193Z,168.75
2023-05-12T12:04:14.010Z,168.75
2023-05-12T12:05:13.980Z,174.38
2023-05-12T12:06:13.973Z,174.38
2023-05-12T12:07:13.970Z,174.38
2023-05-12T12:08:13.969Z,174.38
2023-05-12T12:09:13.967Z,174.38
2023-05-12T12:10:13.995Z,174.38
2023-05-12T12:11:13.966Z,174.38
2023-05-12T12:12:13.962Z,174.38
2023-05-12T12:13:13.980Z,180.00
2023-05-12T12:14:13.982Z,180.00
2023-05-12T12:15:13.961Z,185.63
2023-05-12T12:16:14.956Z,191.25
2023-05-12T12:17:13.954Z,191.25
2023-05-12T12:18:13.977Z,191.25
2023-05-12T12:19:13.972Z,191.25
2023-05-12T12:20:13.951Z,191.25
2023-05-12T12:21:13.953Z,185.63
2023-05-12T12:22:13.954Z,180.00
2023-05-12T12:23:13.940Z,180.00
2023-05-12T12:24:13.942Z,174.38
2023-05-12T12:25:13.940Z,174.38
2023-05-12T12:26:13.938Z,180.00
2023-05-12T12:27:13.990Z,185.63
2023-05-12T12:28:13.950Z,196.88
2023-05-12T12:29:13.932Z,202.50
2023-05-12T12:30:13.942Z,185.63
2023-05-12T12:31:13.947Z,185.63
2023-05-12T12:32:13.927Z,180.00
2023-05-12T12:33:13.950Z,174.38
2023-05-12T12:34:13.927Z,174.38
2023-05-12T12:35:13.931Z,174.38
2023-05-12T12:36:13.917Z,174.38
2023-05-12T12:37:13.915Z,174.38
2023-05-12T12:38:13.913Z,174.38
2023-05-12T12:39:13.912Z,174.38
2023-05-12T12:40:13.908Z,168.75